Time;durP1;ratioP1;P1;durP2;ratioP2;P2;SDS_P1;SDS_P2;PMS_P1;PMS_P2;Temp;Humidity;BMP_temperature;BMP_pressure;BME280_temperature;BME280_humidity;BME280_pressure;Samples;Min_cycle;Max_cycle;Signal;HPM_P1;HPM_P2
2022/08/07 00:00:28;;;;;;;7.25;3.10;;;;;;;;;;5065389;28;20108;-72
2022/08/07 00:02:57;;;;;;;5.05;2.80;;;;;;;;;;5054792;28;20037;-73
2022/08/07 00:05:24;;;;;;;4.28;2.70;;;;;;;;;;5058423;28;20486;-73
2022/08/07 00:07:50;;;;;;;5.30;3.33;;;;;;;;;;5067582;28;20040;-73
2022/08/07 00:10:16;;;;;;;6.05;3.10;;;;;;;;;;5067139;28;20036;-73
2022/08/07 00:12:45;;;;;;;5.93;2.63;;;;;;;;;;5062369;28;20070;-73
2022/08/07 00:15:11;;;;;;;3.75;2.42;;;;;;;;;;5070182;28;20078;-73
2022/08/07 00:17:37;;;;;;;6.30;3.05;;;;;;;;;;5060511;28;20021;-73
2022/08/07 00:20:05;;;;;;;4.90;2.72;;;;;;;;;;5049852;28;20502;-73
2022/08/07 00:22:31;;;;;;;5.13;2.80;;;;;;;;;;5056755;28;20020;-73
2022/08/07 00:24:57;;;;;;;5.97;2.97;;;;;;;;;;5060045;28;20575;-73
2022/08/07 00:27:23;;;;;;;5.82;3.30;;;;;;;;;;5061062;28;20033;-73
2022/08/07 00:29:49;;;;;;;5.30;3.30;;;;;;;;;;5063163;28;20036;-73
2022/08/07 00:32:15;;;;;;;4.88;2.90;;;;;;;;;;5069400;28;20028;-73
2022/08/07 00:34:41;;;;;;;4.80;3.22;;;;;;;;;;5072796;28;20043;-73
2022/08/07 00:37:08;;;;;;;7.43;3.47;;;;;;;;;;5072251;28;20086;-73
2022/08/07 00:39:34;;;;;;;5.50;3.60;;;;;;;;;;5062797;28;20066;-73
2022/08/07 00:42:01;;;;;;;6.47;3.75;;;;;;;;;;5073511;28;20040;-73
2022/08/07 00:44:28;;;;;;;5.10;3.33;;;;;;;;;;5073647;28;20051;-73
2022/08/07 00:46:54;;;;;;;4.93;3.38;;;;;;;;;;5065286;28;20377;-73
2022/08/07 00:49:20;;;;;;;5.63;3.42;;;;;;;;;;5063946;28;20036;-73
2022/08/07 00:51:46;;;;;;;5.47;3.97;;;;;;;;;;5063413;28;20040;-73
2022/08/07 00:54:14;;;;;;;6.43;4.07;;;;;;;;;;5064643;28;20032;-73
2022/08/07 00:56:40;;;;;;;6.43;4.20;;;;;;;;;;5069257;28;20035;-73
2022/08/07 00:59:06;;;;;;;7.25;3.63;;;;;;;;;;5066649;28;20060;-73
2022/08/07 01:01:33;;;;;;;4.50;3.42;;;;;;;;;;5067983;28;20040;-73
2022/08/07 01:03:59;;;;;;;5.75;4.10;;;;;;;;;;5062345;28;20076;-73
2022/08/07 01:06:26;;;;;;;5.88;3.97;;;;;;;;;;5063065;28;20462;-73
2022/08/07 01:08:52;;;;;;;5.45;4.25;;;;;;;;;;5064987;28;20424;-73
2022/08/07 01:11:18;;;;;;;6.45;4.03;;;;;;;;;;5069498;28;20565;-73
2022/08/07 01:13:44;;;;;;;5.45;3.95;;;;;;;;;;5068391;28;20373;-73
2022/08/07 01:16:10;;;;;;;7.97;3.97;;;;;;;;;;5071082;28;20040;-73
2022/08/07 01:18:36;;;;;;;7.40;3.63;;;;;;;;;;5070127;28;20044;-73
2022/08/07 01:21:02;;;;;;;6.80;3.75;;;;;;;;;;5062158;28;20037;-73
2022/08/07 01:23:29;;;;;;;5.75;3.10;;;;;;;;;;5063631;28;20048;-73
2022/08/07 01:25:55;;;;;;;5.03;3.85;;;;;;;;;;5061091;28;20036;-73
2022/08/07 01:28:21;;;;;;;6.88;4.13;;;;;;;;;;5057009;28;20037;-73
2022/08/07 01:30:48;;;;;;;6.13;4.10;;;;;;;;;;5064772;28;20104;-73
2022/08/07 01:33:15;;;;;;;6.40;4.07;;;;;;;;;;5071748;28;20945;-73
2022/08/07 01:35:41;;;;;;;6.30;3.60;;;;;;;;;;5073544;28;20028;-73
2022/08/07 01:38:07;;;;;;;6.40;3.70;;;;;;;;;;5073165;28;20066;-73
2022/08/07 01:40:33;;;;;;;5.10;3.40;;;;;;;;;;5063580;28;20695;-73
2022/08/07 01:42:59;;;;;;;6.95;3.75;;;;;;;;;;5061688;28;20478;-73
2022/08/07 01:45:26;;;;;;;6.10;4.38;;;;;;;;;;5061947;28;20040;-73
2022/08/07 01:47:52;;;;;;;6.00;3.85;;;;;;;;;;5067896;28;20104;-73
2022/08/07 01:50:18;;;;;;;5.72;3.75;;;;;;;;;;5073186;28;20111;-73
2022/08/07 01:52:44;;;;;;;6.00;4.20;;;;;;;;;;5072452;28;20032;-73
2022/08/07 01:55:11;;;;;;;8.07;4.25;;;;;;;;;;5065863;28;20071;-73
2022/08/07 01:57:39;;;;;;;5.43;3.83;;;;;;;;;;5072026;28;20028;-73
2022/08/07 02:00:10;;;;;;;5.72;4.15;;;;;;;;;;5068680;28;20103;-73
2022/08/07 02:02:36;;;;;;;6.07;3.50;;;;;;;;;;5066662;28;20037;-73
2022/08/07 02:05:05;;;;;;;5.38;3.72;;;;;;;;;;5058895;28;20044;-73
2022/08/07 02:07:42;;;;;;;5.50;3.72;;;;;;;;;;5066783;28;20025;-73
2022/08/07 02:10:08;;;;;;;5.72;3.67;;;;;;;;;;5063753;28;20135;-73
2022/08/07 02:12:37;;;;;;;7.60;4.53;;;;;;;;;;5057874;28;20065;-73
2022/08/07 02:15:03;;;;;;;4.43;3.28;;;;;;;;;;5071513;28;20031;-73
2022/08/07 02:17:30;;;;;;;5.00;3.60;;;;;;;;;;5061594;28;20461;-73
2022/08/07 02:19:57;;;;;;;5.78;3.72;;;;;;;;;;5070114;28;20516;-73
2022/08/07 02:22:24;;;;;;;5.30;3.80;;;;;;;;;;5067533;28;20137;-73
2022/08/07 02:24:52;;;;;;;5.43;4.25;;;;;;;;;;5061038;28;20025;-73
2022/08/07 02:27:20;;;;;;;6.47;4.38;;;;;;;;;;5068956;28;20521;-73
2022/08/07 02:29:46;;;;;;;6.30;4.10;;;;;;;;;;5071777;28;20032;-73
2022/08/07 02:32:13;;;;;;;6.35;3.42;;;;;;;;;;5066488;28;20035;-73
2022/08/07 02:34:41;;;;;;;5.65;4.25;;;;;;;;;;5065736;28;20078;-73
2022/08/07 02:37:07;;;;;;;7.75;4.18;;;;;;;;;;5068921;28;20033;-73
2022/08/07 02:39:35;;;;;;;6.47;3.70;;;;;;;;;;5067907;28;20029;-73
2022/08/07 02:42:02;;;;;;;7.05;3.88;;;;;;;;;;5070988;28;20047;-73
2022/08/07 02:44:29;;;;;;;8.02;4.40;;;;;;;;;;5068657;28;20110;-73
2022/08/07 02:46:56;;;;;;;6.25;4.57;;;;;;;;;;5060386;28;20529;-73
2022/08/07 02:49:22;;;;;;;6.35;4.03;;;;;;;;;;5070829;28;20041;-73
2022/08/07 02:51:48;;;;;;;8.00;4.00;;;;;;;;;;5070235;28;20404;-73
2022/08/07 02:54:16;;;;;;;7.47;4.70;;;;;;;;;;5066748;28;20036;-73
2022/08/07 02:56:43;;;;;;;5.63;4.25;;;;;;;;;;5061543;28;20029;-73
2022/08/07 02:59:11;;;;;;;7.82;4.18;;;;;;;;;;5071574;28;20536;-73
2022/08/07 03:01:41;;;;;;;5.53;4.10;;;;;;;;;;5063159;28;20065;-73
2022/08/07 03:04:09;;;;;;;6.28;4.28;;;;;;;;;;5059125;28;20043;-73
2022/08/07 03:06:36;;;;;;;6.25;4.38;;;;;;;;;;5060778;28;20036;-73
2022/08/07 03:09:03;;;;;;;5.45;4.15;;;;;;;;;;5067704;28;20090;-73
2022/08/07 03:11:29;;;;;;;6.93;3.70;;;;;;;;;;5070690;28;20016;-73
2022/08/07 03:13:56;;;;;;;5.60;3.80;;;;;;;;;;5065219;28;20500;-73
2022/08/07 03:16:22;;;;;;;5.28;4.05;;;;;;;;;;5070606;28;20116;-73
2022/08/07 03:18:48;;;;;;;5.95;4.20;;;;;;;;;;5064107;28;20052;-73
2022/08/07 03:21:15;;;;;;;6.72;4.05;;;;;;;;;;5070316;28;20115;-73
2022/08/07 03:23:42;;;;;;;6.07;3.88;;;;;;;;;;5069966;28;20036;-73
2022/08/07 03:26:09;;;;;;;6.28;3.92;;;;;;;;;;5065369;28;20060;-73
2022/08/07 03:28:36;;;;;;;6.70;4.13;;;;;;;;;;5056973;28;20029;-73
2022/08/07 03:31:17;;;;;;;6.63;3.40;;;;;;;;;;5070372;28;20056;-73
2022/08/07 03:33:44;;;;;;;7.35;4.35;;;;;;;;;;5065396;28;20032;-73
2022/08/07 03:36:13;;;;;;;7.70;4.07;;;;;;;;;;5059744;28;20093;-73
2022/08/07 03:38:39;;;;;;;6.90;4.30;;;;;;;;;;5069578;28;20028;-73
2022/08/07 03:41:06;;;;;;;7.25;4.13;;;;;;;;;;5069809;28;20135;-73
2022/08/07 03:43:33;;;;;;;6.43;4.25;;;;;;;;;;5069599;28;20036;-73
2022/08/07 03:45:59;;;;;;;5.43;3.63;;;;;;;;;;5064515;28;20102;-73
2022/08/07 03:48:28;;;;;;;5.22;3.67;;;;;;;;;;5061566;28;20111;-73
2022/08/07 03:50:54;;;;;;;6.70;4.00;;;;;;;;;;5051354;28;20078;-73
2022/08/07 03:53:20;;;;;;;6.60;4.30;;;;;;;;;;5069609;28;20028;-73
2022/08/07 03:55:48;;;;;;;6.25;3.97;;;;;;;;;;5060424;28;20040;-73
2022/08/07 03:58:14;;;;;;;6.50;4.53;;;;;;;;;;5067504;28;20049;-73
2022/08/07 04:00:41;;;;;;;5.88;4.57;;;;;;;;;;5065185;28;20522;-73
2022/08/07 04:03:07;;;;;;;8.73;3.97;;;;;;;;;;5064111;28;20067;-73
2022/08/07 04:05:35;;;;;;;8.02;5.22;;;;;;;;;;5068799;28;20028;-73
2022/08/07 04:08:01;;;;;;;5.95;4.30;;;;;;;;;;5068447;28;20035;-73
2022/08/07 04:10:27;;;;;;;7.47;4.53;;;;;;;;;;5069059;28;20112;-73
2022/08/07 04:12:54;;;;;;;6.35;4.95;;;;;;;;;;5068812;28;20032;-73
2022/08/07 04:15:20;;;;;;;5.68;3.80;;;;;;;;;;5061754;28;20033;-73
2022/08/07 04:17:46;;;;;;;6.78;4.57;;;;;;;;;;5069435;28;20816;-75
2022/08/07 04:20:13;;;;;;;6.75;4.47;;;;;;;;;;5059808;28;20049;-73
2022/08/07 04:22:42;;;;;;;6.47;4.47;;;;;;;;;;5061029;28;20025;-73
2022/08/07 04:25:08;;;;;;;7.07;4.45;;;;;;;;;;5069222;28;20028;-73
2022/08/07 04:27:34;;;;;;;7.47;5.40;;;;;;;;;;5061733;28;20768;-73
2022/08/07 04:30:01;;;;;;;7.18;4.50;;;;;;;;;;5064168;28;20059;-73
2022/08/07 04:32:27;;;;;;;6.50;3.92;;;;;;;;;;5057138;28;20029;-73
2022/08/07 04:34:54;;;;;;;5.80;4.13;;;;;;;;;;5064335;28;20028;-73
2022/08/07 04:37:20;;;;;;;5.95;4.38;;;;;;;;;;5066404;28;20078;-73
2022/08/07 04:39:46;;;;;;;7.78;4.88;;;;;;;;;;5061607;28;20037;-73
2022/08/07 04:42:12;;;;;;;5.85;4.25;;;;;;;;;;5065111;28;20032;-73
2022/08/07 04:44:39;;;;;;;6.53;3.95;;;;;;;;;;5065337;28;20479;-73
2022/08/07 04:47:15;;;;;;;6.80;3.80;;;;;;;;;;5068562;28;20031;-73
2022/08/07 04:49:56;;;;;;;5.55;3.80;;;;;;;;;;5069186;28;20085;-73
2022/08/07 04:52:41;;;;;;;5.55;4.18;;;;;;;;;;5068189;28;20028;-73
2022/08/07 04:55:13;;;;;;;5.50;4.30;;;;;;;;;;5061406;28;20029;-73
2022/08/07 04:57:39;;;;;;;;;;;;;;;;;;5069041;28;20031;-73
2022/08/07 05:00:08;;;;;;;6.65;4.63;;;;;;;;;;5055527;28;19916;-73
2022/08/07 05:02:40;;;;;;;7.72;4.93;;;;;;;;;;5061200;28;20059;-73
2022/08/07 05:05:09;;;;;;;7.25;4.40;;;;;;;;;;5064445;28;20041;-73
2022/08/07 05:07:56;;;;;;;6.30;4.10;;;;;;;;;;5059946;28;20035;-73
2022/08/07 05:10:28;;;;;;;6.53;4.80;;;;;;;;;;5049642;28;20037;-73
2022/08/07 05:12:56;;;;;;;7.20;4.18;;;;;;;;;;5067129;28;20035;-73
2022/08/07 05:15:26;;;;;;;8.73;4.57;;;;;;;;;;5062792;28;20047;-73
2022/08/07 05:17:57;;;;;;;5.93;4.43;;;;;;;;;;5067969;28;20820;-73
2022/08/07 05:20:30;;;;;;;7.18;4.03;;;;;;;;;;5064857;28;20056;-73
2022/08/07 05:22:59;;;;;;;6.65;4.60;;;;;;;;;;5068790;28;20266;-73
2022/08/07 05:25:26;;;;;;;5.45;3.90;;;;;;;;;;5071578;28;20040;-73
2022/08/07 05:27:53;;;;;;;10.02;4.30;;;;;;;;;;5064792;28;20035;-73
2022/08/07 05:30:19;;;;;;;6.00;4.22;;;;;;;;;;5072253;28;20052;-73
2022/08/07 05:32:46;;;;;;;6.78;4.63;;;;;;;;;;5068296;28;20386;-75
2022/08/07 05:35:13;;;;;;;6.45;4.05;;;;;;;;;;5064200;28;20036;-75
2022/08/07 05:37:40;;;;;;;6.10;4.40;;;;;;;;;;5067055;28;20024;-73
2022/08/07 05:40:06;;;;;;;6.57;4.05;;;;;;;;;;5072610;28;20043;-73
2022/08/07 05:42:32;;;;;;;6.20;4.30;;;;;;;;;;5071329;28;20060;-73
2022/08/07 05:44:58;;;;;;;6.82;4.30;;;;;;;;;;5072672;28;20036;-73
2022/08/07 05:47:24;;;;;;;8.90;3.95;;;;;;;;;;5068823;28;20016;-73
2022/08/07 05:49:51;;;;;;;7.53;5.10;;;;;;;;;;5071922;28;20497;-73
2022/08/07 05:52:20;;;;;;;5.05;3.75;;;;;;;;;;5068498;28;20025;-73
2022/08/07 05:54:46;;;;;;;7.57;4.10;;;;;;;;;;5072102;28;20064;-73
2022/08/07 05:57:14;;;;;;;6.60;4.18;;;;;;;;;;5071861;28;20034;-73
2022/08/07 05:59:41;;;;;;;6.35;4.20;;;;;;;;;;5071944;28;20043;-73
2022/08/07 06:02:09;;;;;;;6.82;4.82;;;;;;;;;;5071503;28;20024;-73
2022/08/07 06:04:39;;;;;;;7.88;4.60;;;;;;;;;;5071270;28;20456;-73
2022/08/07 06:07:05;;;;;;;7.60;4.45;;;;;;;;;;5063262;28;20075;-73
2022/08/07 06:09:32;;;;;;;6.57;4.60;;;;;;;;;;5070575;28;20046;-73
2022/08/07 06:11:58;;;;;;;5.88;4.25;;;;;;;;;;5071631;28;20023;-73
2022/08/07 06:14:25;;;;;;;7.65;4.95;;;;;;;;;;5060779;28;20036;-73
2022/08/07 06:16:51;;;;;;;5.82;4.30;;;;;;;;;;5067419;28;20031;-73
2022/08/07 06:19:17;;;;;;;6.78;4.35;;;;;;;;;;5063281;28;20167;-73
2022/08/07 06:21:44;;;;;;;6.68;4.88;;;;;;;;;;5065771;28;20020;-73
2022/08/07 06:24:10;;;;;;;5.47;4.20;;;;;;;;;;5064300;28;20942;-73
2022/08/07 06:26:38;;;;;;;6.95;5.10;;;;;;;;;;5069788;28;20592;-73
2022/08/07 06:29:04;;;;;;;6.68;4.45;;;;;;;;;;5066375;28;21276;-73
2022/08/07 06:31:30;;;;;;;6.60;5.10;;;;;;;;;;5066160;28;20028;-73
2022/08/07 06:33:57;;;;;;;7.57;5.53;;;;;;;;;;5071159;28;20028;-73
2022/08/07 06:36:25;;;;;;;8.35;5.22;;;;;;;;;;5071082;28;20033;-73
2022/08/07 06:38:51;;;;;;;6.45;4.93;;;;;;;;;;5069310;28;20041;-73
2022/08/07 06:41:20;;;;;;;7.75;4.78;;;;;;;;;;5061265;28;20078;-73
2022/08/07 06:43:47;;;;;;;7.10;4.70;;;;;;;;;;5067676;28;20043;-73
2022/08/07 06:46:14;;;;;;;7.75;4.93;;;;;;;;;;5059126;28;20516;-73
2022/08/07 06:48:41;;;;;;;5.82;4.20;;;;;;;;;;5063979;28;20063;-73
2022/08/07 06:51:08;;;;;;;5.97;4.63;;;;;;;;;;5068589;28;20079;-73
2022/08/07 06:53:36;;;;;;;8.18;5.10;;;;;;;;;;5065768;28;20040;-74
2022/08/07 06:56:04;;;;;;;7.43;5.60;;;;;;;;;;5064422;28;20469;-73
2022/08/07 06:58:31;;;;;;;9.73;5.40;;;;;;;;;;5067966;28;20563;-73
2022/08/07 07:00:57;;;;;;;8.20;4.63;;;;;;;;;;5063469;28;20508;-73
2022/08/07 07:03:23;;;;;;;6.53;5.43;;;;;;;;;;5064616;28;20486;-73
2022/08/07 07:05:50;;;;;;;6.60;5.30;;;;;;;;;;5067340;28;20447;-73
2022/08/07 07:08:16;;;;;;;10.05;5.00;;;;;;;;;;5066869;28;20028;-73
2022/08/07 07:10:42;;;;;;;6.93;4.80;;;;;;;;;;5061605;28;20115;-73
2022/08/07 07:13:16;;;;;;;8.27;4.80;;;;;;;;;;5059911;28;20531;-73
2022/08/07 07:15:45;;;;;;;6.75;4.50;;;;;;;;;;5069125;28;20028;-73
2022/08/07 07:18:29;;;;;;;6.57;4.78;;;;;;;;;;5065733;28;20024;-73
2022/08/07 07:21:04;;;;;;;8.25;5.13;;;;;;;;;;5064850;28;20047;-73
2022/08/07 07:23:31;;;;;;;6.43;4.80;;;;;;;;;;5065344;28;20119;-73
2022/08/07 07:25:59;;;;;;;9.98;4.28;;;;;;;;;;5067451;28;20028;-73
2022/08/07 07:28:46;;;;;;;7.00;4.75;;;;;;;;;;5065965;28;20580;-73
2022/08/07 07:31:19;;;;;;;7.32;5.05;;;;;;;;;;5056459;28;20036;-73
2022/08/07 07:33:45;;;;;;;6.80;5.20;;;;;;;;;;5062562;28;20040;-73
2022/08/07 07:36:12;;;;;;;7.40;5.13;;;;;;;;;;5062524;28;20020;-73
2022/08/07 07:38:39;;;;;;;7.25;5.68;;;;;;;;;;5058699;28;20036;-73
2022/08/07 07:41:07;;;;;;;9.60;6.25;;;;;;;;;;5068671;28;20875;-73
2022/08/07 07:43:34;;;;;;;8.38;5.20;;;;;;;;;;5064208;28;20036;-73
2022/08/07 07:46:01;;;;;;;6.70;5.05;;;;;;;;;;5069388;28;20033;-73
2022/08/07 07:48:29;;;;;;;6.65;5.57;;;;;;;;;;5066817;28;20037;-73
2022/08/07 07:50:56;;;;;;;9.15;5.40;;;;;;;;;;5059736;28;20524;-73
2022/08/07 07:53:23;;;;;;;8.27;5.47;;;;;;;;;;5066010;28;20032;-73
2022/08/07 07:55:51;;;;;;;7.45;5.22;;;;;;;;;;5069303;28;20412;-73
2022/08/07 07:58:18;;;;;;;8.25;5.10;;;;;;;;;;5062030;28;20090;-73
2022/08/07 08:00:45;;;;;;;10.13;5.32;;;;;;;;;;5056017;28;20037;-73
2022/08/07 08:03:12;;;;;;;9.02;5.80;;;;;;;;;;5061543;28;20029;-73
2022/08/07 08:05:40;;;;;;;7.03;4.60;;;;;;;;;;5067215;28;20601;-73
2022/08/07 08:08:07;;;;;;;6.65;4.57;;;;;;;;;;5069197;28;20462;-73
2022/08/07 08:10:33;;;;;;;6.80;5.18;;;;;;;;;;5060687;28;20033;-73
2022/08/07 08:13:00;;;;;;;5.70;4.63;;;;;;;;;;5064661;28;20103;-73
2022/08/07 08:15:28;;;;;;;8.30;4.97;;;;;;;;;;5068998;28;20056;-73
2022/08/07 08:17:56;;;;;;;6.57;4.88;;;;;;;;;;5064032;28;20417;-73
2022/08/07 08:20:22;;;;;;;9.52;5.15;;;;;;;;;;5063739;28;20052;-73
2022/08/07 08:28:24;;;;;;;7.35;5.70;;;;;;;;;;5063699;28;20059;-73
2022/08/07 08:30:52;;;;;;;5.78;4.50;;;;;;;;;;5065614;28;20167;-73
2022/08/07 08:33:19;;;;;;;6.35;4.68;;;;;;;;;;5064485;28;20037;-73
2022/08/07 08:35:50;;;;;;;6.57;4.68;;;;;;;;;;5063839;28;20040;-73
2022/08/07 08:38:17;;;;;;;9.18;5.15;;;;;;;;;;5060827;28;20103;-73
2022/08/07 08:40:47;;;;;;;5.97;5.07;;;;;;;;;;5066304;28;20138;-73
2022/08/07 08:43:17;;;;;;;10.45;5.10;;;;;;;;;;5068870;28;20029;-73
2022/08/07 08:45:46;;;;;;;6.25;4.28;;;;;;;;;;5068413;28;20078;-73
2022/08/07 08:48:18;;;;;;;6.80;4.95;;;;;;;;;;5069007;28;20033;-73
2022/08/07 08:50:53;;;;;;;8.50;5.18;;;;;;;;;;5059391;28;20032;-73
2022/08/07 08:53:44;;;;;;;8.18;5.38;;;;;;;;;;5060244;28;20152;-73
2022/08/07 08:56:12;;;;;;;6.22;5.00;;;;;;;;;;5068720;28;20147;-73
2022/08/07 08:58:47;;;;;;;8.02;4.90;;;;;;;;;;5068549;28;20120;-73
2022/08/07 09:01:16;;;;;;;5.35;4.10;;;;;;;;;;5066164;28;20048;-73
2022/08/07 09:03:48;;;;;;;8.35;4.65;;;;;;;;;;5058637;28;20111;-73
2022/08/07 09:06:21;;;;;;;8.50;5.30;;;;;;;;;;5066858;28;20025;-73
2022/08/07 09:08:56;;;;;;;8.93;5.45;;;;;;;;;;5069947;28;20049;-73
2022/08/07 09:11:22;;;;;;;7.93;4.85;;;;;;;;;;5068651;28;20028;-73
2022/08/07 09:14:01;;;;;;;7.18;5.15;;;;;;;;;;5068919;28;20025;-73
2022/08/07 09:16:38;;;;;;;6.72;4.55;;;;;;;;;;5066319;28;20035;-73
2022/08/07 09:19:23;;;;;;;5.47;4.15;;;;;;;;;;5063462;28;20049;-73
2022/08/07 09:22:08;;;;;;;6.63;4.93;;;;;;;;;;5055962;28;20068;-73
2022/08/07 09:24:52;;;;;;;6.93;5.03;;;;;;;;;;5061312;28;20044;-73
2022/08/07 09:27:21;;;;;;;7.00;4.38;;;;;;;;;;5067468;28;20041;-74
2022/08/07 09:29:47;;;;;;;6.50;4.50;;;;;;;;;;5071755;28;20043;-74
2022/08/07 09:32:32;;;;;;;6.13;4.47;;;;;;;;;;5066656;28;20028;-74
2022/08/07 09:35:13;;;;;;;6.60;4.55;;;;;;;;;;5069058;28;20465;-75
2022/08/07 09:37:48;;;;;;;5.57;4.50;;;;;;;;;;5066705;28;20143;-73
2022/08/07 09:40:33;;;;;;;6.15;4.60;;;;;;;;;;5066967;28;20029;-73
2022/08/07 09:43:22;;;;;;;6.75;4.65;;;;;;;;;;5070076;28;20032;-73
2022/08/07 09:45:51;;;;;;;5.50;4.32;;;;;;;;;;5067251;28;20914;-73
2022/08/07 09:48:27;;;;;;;5.75;4.40;;;;;;;;;;5062982;28;20041;-73
2022/08/07 09:50:56;;;;;;;6.93;4.90;;;;;;;;;;5064336;28;20036;-73
2022/08/07 09:53:24;;;;;;;7.05;4.28;;;;;;;;;;5061914;28;20824;-73
2022/08/07 09:56:19;;;;;;;7.90;4.95;;;;;;;;;;5066855;28;20028;-73
2022/08/07 09:59:08;;;;;;;6.57;4.63;;;;;;;;;;5048917;28;20048;-73
2022/08/07 10:01:34;;;;;;;7.00;5.35;;;;;;;;;;5060778;28;20486;-73
2022/08/07 10:04:00;;;;;;;7.22;4.80;;;;;;;;;;5068736;28;20082;-73
2022/08/07 10:06:46;;;;;;;6.80;4.82;;;;;;;;;;5060041;28;20310;-73
2022/08/07 10:09:21;;;;;;;8.38;5.00;;;;;;;;;;5067683;28;20040;-73
2022/08/07 10:12:03;;;;;;;7.30;4.70;;;;;;;;;;5071908;28;20028;-73
2022/08/07 10:14:42;;;;;;;6.18;4.97;;;;;;;;;;5068082;28;20107;-73
2022/08/07 10:17:27;;;;;;;7.63;5.25;;;;;;;;;;5071693;28;20024;-73
2022/08/07 10:19:59;;;;;;;5.43;3.58;;;;;;;;;;5063513;28;20068;-73
2022/08/07 10:22:34;;;;;;;6.43;3.97;;;;;;;;;;5069619;28;20024;-73
2022/08/07 10:25:03;;;;;;;4.72;3.95;;;;;;;;;;5071006;28;20032;-73
2022/08/07 10:27:45;;;;;;;6.40;5.00;;;;;;;;;;5060934;28;20085;-73
2022/08/07 10:30:17;;;;;;;6.10;4.32;;;;;;;;;;5068624;28;20040;-73
2022/08/07 10:32:53;;;;;;;5.10;4.25;;;;;;;;;;5066202;28;20113;-73
2022/08/07 10:35:35;;;;;;;6.78;4.55;;;;;;;;;;5066420;28;20462;-73
2022/08/07 10:38:20;;;;;;;7.57;4.93;;;;;;;;;;5070470;28;20103;-73
2022/08/07 10:41:04;;;;;;;7.00;5.32;;;;;;;;;;5070551;28;20032;-73
2022/08/07 10:43:34;;;;;;;7.18;5.32;;;;;;;;;;5065707;28;20037;-73
2022/08/07 10:46:01;;;;;;;6.35;5.00;;;;;;;;;;5056642;28;20032;-73
2022/08/07 10:48:47;;;;;;;5.82;4.35;;;;;;;;;;5071791;28;20678;-73
2022/08/07 10:51:28;;;;;;;6.70;4.95;;;;;;;;;;5062097;28;20032;-73
2022/08/07 10:54:17;;;;;;;5.82;4.72;;;;;;;;;;5066181;28;20127;-73
2022/08/07 10:57:02;;;;;;;7.05;4.82;;;;;;;;;;5063227;28;20508;-73
2022/08/07 10:59:46;;;;;;;5.65;4.25;;;;;;;;;;5052140;28;20041;-73
2022/08/07 11:02:26;;;;;;;6.03;3.63;;;;;;;;;;5063031;28;20068;-73
2022/08/07 11:05:05;;;;;;;7.32;4.30;;;;;;;;;;5065502;28;20378;-73
2022/08/07 11:08:00;;;;;;;5.65;4.40;;;;;;;;;;5064928;28;20768;-73
2022/08/07 11:10:34;;;;;;;5.95;4.18;;;;;;;;;;4996209;28;20050;-73
2022/08/07 11:13:07;;;;;;;8.23;4.65;;;;;;;;;;5059726;28;20034;-73
2022/08/07 11:15:37;;;;;;;6.75;4.47;;;;;;;;;;5064587;28;20753;-73
2022/08/07 11:18:14;;;;;;;5.95;4.18;;;;;;;;;;5058656;28;20402;-73
2022/08/07 11:20:46;;;;;;;5.25;3.97;;;;;;;;;;5057609;28;20087;-73
2022/08/07 11:23:37;;;;;;;5.32;4.20;;;;;;;;;;5064094;28;20474;-73
2022/08/07 11:26:03;;;;;;;6.05;4.55;;;;;;;;;;5065984;28;20046;-73
2022/08/07 11:28:38;;;;;;;6.40;4.72;;;;;;;;;;5065460;28;20029;-73
2022/08/07 11:31:12;;;;;;;6.57;4.25;;;;;;;;;;5070649;28;20029;-73
2022/08/07 11:33:47;;;;;;;6.70;3.90;;;;;;;;;;5068780;28;20036;-73
2022/08/07 11:36:25;;;;;;;7.03;3.75;;;;;;;;;;5067957;28;20040;-73
2022/08/07 11:39:00;;;;;;;5.32;3.80;;;;;;;;;;5059793;28;20040;-73
2022/08/07 11:41:31;;;;;;;6.00;3.63;;;;;;;;;;5069153;28;20028;-73
2022/08/07 11:44:00;;;;;;;6.50;3.80;;;;;;;;;;5064747;28;20418;-73
2022/08/07 11:46:34;;;;;;;6.47;3.97;;;;;;;;;;5065503;28;20058;-73
2022/08/07 11:49:09;;;;;;;4.65;3.70;;;;;;;;;;5062470;28;20103;-73
2022/08/07 11:51:47;;;;;;;6.32;3.72;;;;;;;;;;5065795;28;20032;-73
2022/08/07 11:54:13;;;;;;;5.55;3.78;;;;;;;;;;5062666;28;20083;-73
2022/08/07 11:56:53;;;;;;;6.95;3.63;;;;;;;;;;5054155;28;20403;-73
2022/08/07 11:59:45;;;;;;;5.70;3.90;;;;;;;;;;5066657;28;20486;-73
2022/08/07 12:02:10;;;;;;;;;;;;;;;;;;5053302;28;20043;-73
2022/08/07 12:04:55;;;;;;;5.18;3.45;;;;;;;;;;5061108;28;19912;-73
2022/08/07 12:07:21;;;;;;;5.13;3.67;;;;;;;;;;5061654;28;20028;-73
2022/08/07 12:09:54;;;;;;;6.22;3.15;;;;;;;;;;5066586;28;20169;-73
2022/08/07 12:12:27;;;;;;;4.78;3.00;;;;;;;;;;5064900;28;20024;-73
2022/08/07 12:15:14;;;;;;;4.70;3.20;;;;;;;;;;5062544;28;20037;-73
2022/08/07 12:17:46;;;;;;;5.65;4.05;;;;;;;;;;5064105;28;20024;-73
2022/08/07 12:20:20;;;;;;;5.47;3.72;;;;;;;;;;5065335;28;20135;-73
2022/08/07 12:22:51;;;;;;;4.85;3.80;;;;;;;;;;5068872;28;20037;-73
2022/08/07 12:28:14;;;;;;;6.53;3.63;;;;;;;;;;5065728;28;20406;-73
2022/08/07 12:30:42;;;;;;;5.65;3.50;;;;;;;;;;5067753;28;20082;-73
2022/08/07 12:33:11;;;;;;;6.95;3.53;;;;;;;;;;5057012;28;20029;-73
2022/08/07 12:35:39;;;;;;;5.40;3.53;;;;;;;;;;5064051;28;20032;-73
2022/08/07 12:38:07;;;;;;;4.70;3.30;;;;;;;;;;5072040;28;20028;-73
2022/08/07 12:40:35;;;;;;;4.80;3.45;;;;;;;;;;5072949;28;20024;-73
2022/08/07 12:43:02;;;;;;;3.85;2.90;;;;;;;;;;5063866;28;20096;-73
2022/08/07 12:45:34;;;;;;;12.45;3.80;;;;;;;;;;5071128;28;20032;-73
2022/08/07 12:48:11;;;;;;;5.28;3.35;;;;;;;;;;5069502;28;20047;-73
2022/08/07 12:50:45;;;;;;;4.53;3.17;;;;;;;;;;5071113;28;20466;-73
2022/08/07 12:53:11;;;;;;;4.60;3.05;;;;;;;;;;5064779;28;20036;-73
2022/08/07 12:55:40;;;;;;;3.97;2.80;;;;;;;;;;5068471;28;20033;-73
2022/08/07 12:58:07;;;;;;;5.10;3.20;;;;;;;;;;5066670;28;20027;-73
2022/08/07 13:00:53;;;;;;;4.00;2.88;;;;;;;;;;5071481;28;20672;-74
2022/08/07 13:03:29;;;;;;;4.45;2.95;;;;;;;;;;5048118;28;20049;-73
2022/08/07 13:06:13;;;;;;;5.40;3.30;;;;;;;;;;5067616;28;20600;-73
2022/08/07 13:08:42;;;;;;;4.63;3.10;;;;;;;;;;5061387;28;20033;-73
2022/08/07 13:11:14;;;;;;;8.38;3.70;;;;;;;;;;5059714;28;20068;-73
2022/08/07 13:13:46;;;;;;;9.18;3.13;;;;;;;;;;5068313;28;20036;-73
2022/08/07 13:16:31;;;;;;;5.47;2.95;;;;;;;;;;5067847;28;20037;-73
2022/08/07 13:19:10;;;;;;;6.10;2.97;;;;;;;;;;5068662;28;20060;-73
2022/08/07 13:21:45;;;;;;;4.82;2.58;;;;;;;;;;5061698;28;20107;-73
2022/08/07 13:24:17;;;;;;;5.07;2.42;;;;;;;;;;5072654;28;20029;-73
2022/08/07 13:27:00;;;;;;;5.07;2.90;;;;;;;;;;5072932;28;20470;-73
2022/08/07 13:29:32;;;;;;;4.28;2.85;;;;;;;;;;5066583;28;20140;-73
2022/08/07 13:32:01;;;;;;;5.25;3.00;;;;;;;;;;5066643;28;20367;-73
2022/08/07 13:34:45;;;;;;;3.58;2.67;;;;;;;;;;5064256;28;20339;-73
2022/08/07 13:37:23;;;;;;;6.30;3.22;;;;;;;;;;5058970;28;20398;-73
2022/08/07 13:40:02;;;;;;;4.53;2.70;;;;;;;;;;5070005;28;20036;-73
2022/08/07 13:42:30;;;;;;;10.30;2.72;;;;;;;;;;5058006;28;20724;-73
2022/08/07 13:44:57;;;;;;;3.75;2.63;;;;;;;;;;5066610;28;20032;-73
2022/08/07 13:47:26;;;;;;;3.50;2.80;;;;;;;;;;5066571;28;20033;-73
2022/08/07 13:49:53;;;;;;;9.25;2.70;;;;;;;;;;5060046;28;20464;-73
2022/08/07 13:52:20;;;;;;;5.15;2.47;;;;;;;;;;5062299;28;20037;-73
2022/08/07 13:54:46;;;;;;;3.33;2.42;;;;;;;;;;5072049;28;20041;-73
2022/08/07 13:57:13;;;;;;;5.45;2.55;;;;;;;;;;5068786;28;20154;-73
2022/08/07 13:59:42;;;;;;;4.90;2.55;;;;;;;;;;5063347;28;20029;-73
2022/08/07 14:02:21;;;;;;;3.30;2.33;;;;;;;;;;5068053;28;20037;-73
2022/08/07 14:04:49;;;;;;;4.97;2.30;;;;;;;;;;5070015;28;20118;-73
2022/08/07 14:07:17;;;;;;;4.05;2.35;;;;;;;;;;5066741;28;20036;-73
2022/08/07 14:09:43;;;;;;;3.92;2.35;;;;;;;;;;5071710;28;20085;-73
2022/08/07 14:12:32;;;;;;;3.92;2.28;;;;;;;;;;5071437;28;20028;-73
2022/08/07 14:15:01;;;;;;;4.65;2.55;;;;;;;;;;5062572;28;20463;-73
2022/08/07 14:17:27;;;;;;;4.13;2.13;;;;;;;;;;5058386;28;20063;-73
2022/08/07 14:19:59;;;;;;;5.15;2.17;;;;;;;;;;5068554;28;20084;-73
2022/08/07 14:22:29;;;;;;;3.83;2.30;;;;;;;;;;5071615;28;20440;-73
2022/08/07 14:25:01;;;;;;;4.00;2.30;;;;;;;;;;5068537;28;20054;-73
2022/08/07 14:27:37;;;;;;;4.45;2.38;;;;;;;;;;5071292;28;20071;-73
2022/08/07 14:30:07;;;;;;;6.68;2.13;;;;;;;;;;5072870;28;20469;-73
2022/08/07 14:32:41;;;;;;;5.68;2.10;;;;;;;;;;5070168;28;20389;-73
2022/08/07 14:35:08;;;;;;;3.53;2.22;;;;;;;;;;5072433;28;20032;-73
2022/08/07 14:37:35;;;;;;;3.45;2.30;;;;;;;;;;5058194;28;20116;-73
2022/08/07 14:40:02;;;;;;;3.42;2.15;;;;;;;;;;5069711;28;20351;-73
2022/08/07 14:42:29;;;;;;;6.22;2.40;;;;;;;;;;5059250;28;20062;-73
2022/08/07 14:44:57;;;;;;;3.40;2.17;;;;;;;;;;5062802;28;20470;-73
2022/08/07 14:47:24;;;;;;;9.13;2.45;;;;;;;;;;5062867;28;20100;-73
2022/08/07 14:49:51;;;;;;;3.38;2.20;;;;;;;;;;5072578;28;20064;-73
2022/08/07 14:52:19;;;;;;;5.63;2.30;;;;;;;;;;5068821;28;20390;-73
2022/08/07 14:54:48;;;;;;;3.15;2.00;;;;;;;;;;5072230;28;20426;-73
2022/08/07 14:57:15;;;;;;;3.20;2.00;;;;;;;;;;5067426;28;20452;-73
2022/08/07 14:59:42;;;;;;;3.97;2.20;;;;;;;;;;5064668;28;20032;-73
2022/08/07 15:02:09;;;;;;;3.45;2.22;;;;;;;;;;5055016;28;20032;-73
2022/08/07 15:04:39;;;;;;;3.92;2.05;;;;;;;;;;5059617;28;20370;-73
2022/08/07 15:07:05;;;;;;;4.72;2.50;;;;;;;;;;5055888;28;20052;-73
2022/08/07 15:09:32;;;;;;;2.78;1.88;;;;;;;;;;5065537;28;20036;-73